Time;durP1;ratioP1;P1;durP2;ratioP2;P2;SDS_P1;SDS_P2;PMS_P1;PMS_P2;Temp;Humidity;BMP_temperature;BMP_pressure;BME280_temperature;BME280_humidity;BME280_pressure;Samples;Min_cycle;Max_cycle;Signal;HPM_P1;HPM_P2
2021/09/07 00:00:43;;;;;;;10.20;7.15;;;17.10;99.90;;;;;;5051341;28;20033;-89
2021/09/07 00:03:09;;;;;;;10.75;6.63;;;17.20;99.90;;;;;;5047639;28;20088;-89
2021/09/07 00:05:34;;;;;;;9.82;6.88;;;18.10;99.90;;;;;;5049640;28;20029;-88
2021/09/07 00:08:00;;;;;;;12.00;6.88;;;17.10;99.90;;;;;;5047408;28;20033;-89
2021/09/07 00:10:25;;;;;;;12.35;6.00;;;16.90;99.90;;;;;;5045231;28;20877;-89
2021/09/07 00:12:52;;;;;;;11.25;6.63;;;16.80;99.90;;;;;;5050352;28;20156;-89
2021/09/07 00:15:18;;;;;;;8.10;6.07;;;17.20;99.90;;;;;;5047795;28;20398;-88
2021/09/07 00:17:44;;;;;;;11.23;6.60;;;18.10;99.90;;;;;;5055300;28;20393;-90
2021/09/07 00:20:10;;;;;;;10.77;7.57;;;18.30;99.90;;;;;;5048244;28;20104;-90
2021/09/07 00:22:37;;;;;;;9.10;6.28;;;16.90;99.90;;;;;;5049138;28;20033;-89
2021/09/07 00:25:05;;;;;;;10.15;7.10;;;16.80;99.90;;;;;;5047310;28;20053;-89
2021/09/07 00:27:31;;;;;;;9.95;6.47;;;;;;;;;;5046182;28;20120;-89
2021/09/07 00:29:57;;;;;;;9.48;6.25;;;16.80;99.90;;;;;;5046323;28;20493;-89
2021/09/07 00:32:23;;;;;;;12.23;7.20;;;18.70;99.90;;;;;;5047831;28;20043;-89
2021/09/07 00:34:48;;;;;;;11.10;6.50;;;17.10;99.90;;;;;;5048361;28;20029;-90
2021/09/07 00:37:14;;;;;;;10.00;6.60;;;18.40;99.90;;;;;;5050260;28;20016;-90
2021/09/07 00:39:40;;;;;;;9.85;6.50;;;16.70;99.90;;;;;;5053331;28;20060;-87
2021/09/07 00:42:05;;;;;;;13.73;6.80;;;16.70;99.90;;;;;;5049363;28;20024;-89
2021/09/07 00:44:31;;;;;;;10.50;6.35;;;16.60;99.90;;;;;;5045849;28;20040;-90
2021/09/07 00:46:59;;;;;;;10.02;6.57;;;16.60;99.90;;;;;;5052549;28;20082;-89
2021/09/07 00:49:27;;;;;;;11.95;6.68;;;17.20;99.90;;;;;;5042942;28;20112;-90
2021/09/07 00:51:53;;;;;;;9.20;6.20;;;17.20;99.90;;;;;;5050022;28;20036;-90
2021/09/07 00:54:20;;;;;;;9.18;6.63;;;16.60;99.90;;;;;;5046048;28;20037;-89
2021/09/07 00:56:47;;;;;;;11.93;6.55;;;16.50;99.90;;;;;;5047941;28;20509;-89
2021/09/07 00:59:14;;;;;;;9.95;6.30;;;16.60;99.90;;;;;;5042272;28;20154;-90
2021/09/07 01:01:40;;;;;;;10.52;6.65;;;17.20;99.90;;;;;;5051067;28;20037;-89
2021/09/07 01:04:06;;;;;;;12.15;7.13;;;17.40;99.90;;;;;;5046327;28;20032;-90
2021/09/07 01:06:33;;;;;;;12.70;6.82;;;17.30;99.90;;;;;;5043897;28;20033;-89
2021/09/07 01:08:59;;;;;;;9.57;6.72;;;17.00;99.90;;;;;;5050651;28;20061;-91
2021/09/07 01:11:25;;;;;;;10.35;7.13;;;16.40;99.90;;;;;;5056160;28;20033;-89
2021/09/07 01:13:51;;;;;;;10.65;6.60;;;16.40;99.90;;;;;;5057588;28;20021;-88
2021/09/07 01:16:17;;;;;;;10.75;6.47;;;17.90;99.90;;;;;;5051744;28;20100;-90
2021/09/07 01:18:43;;;;;;;11.65;7.05;;;16.30;99.90;;;;;;5057157;28;20082;-88
2021/09/07 01:21:14;;;;;;;12.18;6.93;;;16.30;99.90;;;;;;5057839;28;20059;-89
2021/09/07 01:23:42;;;;;;;9.10;6.90;;;17.60;99.90;;;;;;5053976;28;20128;-87
2021/09/07 01:26:13;;;;;;;11.48;6.50;;;17.60;99.90;;;;;;5051880;28;20025;-90
2021/09/07 01:28:39;;;;;;;9.48;6.53;;;16.20;99.90;;;;;;5045908;28;20029;-88
2021/09/07 01:31:07;;;;;;;12.48;6.80;;;16.50;99.90;;;;;;5045436;28;20047;-89
2021/09/07 01:33:34;;;;;;;8.48;6.50;;;16.10;99.90;;;;;;5044827;28;20100;-89
2021/09/07 01:36:00;;;;;;;10.80;7.30;;;16.10;99.90;;;;;;5052889;28;20014;-86
2021/09/07 01:38:27;;;;;;;10.05;6.35;;;16.20;99.90;;;;;;5051461;28;20036;-89
2021/09/07 01:40:54;;;;;;;10.38;7.13;;;17.40;99.90;;;;;;5049178;28;20048;-87
2021/09/07 01:43:20;;;;;;;8.32;6.32;;;16.10;99.90;;;;;;5050743;28;20040;-90
2021/09/07 01:45:52;;;;;;;12.23;7.35;;;16.10;99.90;;;;;;5056543;28;20066;-89
2021/09/07 01:48:19;;;;;;;11.23;6.60;;;16.10;99.90;;;;;;5049216;28;20037;-87
2021/09/07 01:50:45;;;;;;;11.35;6.80;;;16.10;99.90;;;;;;5059185;28;20037;-90
2021/09/07 01:53:11;;;;;;;9.30;6.32;;;16.10;99.90;;;;;;5064345;28;20064;-88
2021/09/07 01:55:36;;;;;;;14.70;7.22;;;16.10;99.90;;;;;;5054312;28;20043;-86
2021/09/07 01:58:02;;;;;;;11.73;6.72;;;17.30;99.90;;;;;;5046840;28;20045;-88
2021/09/07 02:00:28;;;;;;;10.57;6.95;;;16.10;99.90;;;;;;5045790;28;20063;-88
2021/09/07 02:02:54;;;;;;;9.57;6.60;;;17.80;99.90;;;;;;5049226;28;20029;-89
2021/09/07 02:05:20;;;;;;;14.88;6.97;;;16.00;99.90;;;;;;5054504;28;20548;-87
2021/09/07 02:07:46;;;;;;;12.05;7.07;;;15.90;99.90;;;;;;5051959;28;20513;-88
2021/09/07 02:10:12;;;;;;;10.38;6.90;;;16.00;99.90;;;;;;5055200;28;20025;-90
2021/09/07 02:12:38;;;;;;;9.80;6.75;;;17.80;99.90;;;;;;5051233;28;20017;-89
2021/09/07 02:15:06;;;;;;;8.82;6.20;;;16.10;99.90;;;;;;5053693;28;20024;-85
2021/09/07 02:17:31;;;;;;;11.25;7.40;;;15.90;99.90;;;;;;5050527;28;20536;-88
2021/09/07 02:19:57;;;;;;;11.50;7.15;;;;;;;;;;5059242;28;20063;-90
2021/09/07 02:22:23;;;;;;;12.30;7.38;;;15.90;99.90;;;;;;5063632;28;20108;-89
2021/09/07 02:24:49;;;;;;;10.98;7.20;;;15.80;99.90;;;;;;5060609;28;20029;-89
2021/09/07 02:27:14;;;;;;;11.95;6.40;;;16.30;99.90;;;;;;5054153;28;20025;-89
2021/09/07 02:29:41;;;;;;;12.15;6.90;;;15.80;99.90;;;;;;5049713;28;20020;-88
2021/09/07 02:32:07;;;;;;;11.98;7.70;;;16.00;99.90;;;;;;5053196;28;20036;-89
2021/09/07 02:34:33;;;;;;;13.93;7.18;;;15.80;99.90;;;;;;5055694;28;20017;-89
2021/09/07 02:36:59;;;;;;;12.93;7.43;;;15.90;99.90;;;;;;5054236;28;20032;-89
2021/09/07 02:39:24;;;;;;;12.18;6.50;;;15.80;99.90;;;;;;5058439;28;20046;-90
2021/09/07 02:41:51;;;;;;;9.18;6.93;;;15.80;99.90;;;;;;5052946;28;20037;-89
2021/09/07 02:44:18;;;;;;;10.80;6.72;;;16.30;99.90;;;;;;5056117;28;20508;-89
2021/09/07 02:46:43;;;;;;;8.35;6.07;;;15.80;99.90;;;;;;5054352;28;20117;-89
2021/09/07 02:49:09;;;;;;;9.73;6.50;;;15.80;99.90;;;;;;5055987;28;20048;-89
2021/09/07 02:51:35;;;;;;;10.63;6.82;;;16.50;99.90;;;;;;5065397;28;20029;-89
2021/09/07 02:54:00;;;;;;;10.73;7.22;;;15.70;99.90;;;;;;5055784;28;20160;-89
2021/09/07 02:56:26;;;;;;;9.35;6.40;;;15.70;99.90;;;;;;5055069;28;20150;-87
2021/09/07 02:58:52;;;;;;;10.07;6.40;;;16.70;99.90;;;;;;5060861;28;20031;-88
2021/09/07 03:01:17;;;;;;;10.52;6.43;;;14.60;99.90;;;;;;5060218;28;20048;-86
2021/09/07 03:03:43;;;;;;;12.23;7.32;;;;;;;;;;5051133;28;20120;-88
2021/09/07 03:06:09;;;;;;;9.55;6.65;;;15.70;99.90;;;;;;5047568;28;20472;-86
2021/09/07 03:08:35;;;;;;;8.88;6.05;;;;;;;;;;5052760;28;20036;-89
2021/09/07 03:11:01;;;;;;;12.25;7.15;;;15.70;99.90;;;;;;5050880;28;20054;-87
2021/09/07 03:13:26;;;;;;;12.50;7.38;;;16.30;99.90;;;;;;5043863;28;20029;-87
2021/09/07 03:15:52;;;;;;;10.63;7.30;;;15.60;99.90;;;;;;5049368;28;20045;-88
2021/09/07 03:18:18;;;;;;;12.15;6.93;;;15.70;99.90;;;;;;5051721;28;20013;-88
2021/09/07 03:20:43;;;;;;;11.45;7.00;;;15.70;99.90;;;;;;5055060;28;20075;-91
2021/09/07 03:23:09;;;;;;;12.75;7.38;;;15.60;99.90;;;;;;5053457;28;20500;-86
2021/09/07 03:25:35;;;;;;;11.75;6.75;;;15.70;99.90;;;;;;5052003;28;20029;-86
2021/09/07 03:28:00;;;;;;;12.95;7.03;;;15.60;99.90;;;;;;5053151;28;20047;-88
2021/09/07 03:30:26;;;;;;;10.82;6.90;;;15.70;99.90;;;;;;5051409;28;20033;-89
2021/09/07 03:32:52;;;;;;;10.70;6.78;;;15.60;99.90;;;;;;5049783;28;20017;-89
2021/09/07 03:35:18;;;;;;;12.05;6.75;;;;;;;;;;5047869;28;20018;-88
2021/09/07 03:37:44;;;;;;;12.15;7.35;;;15.50;99.90;;;;;;5048608;28;20463;-89
2021/09/07 03:40:12;;;;;;;11.63;6.75;;;16.10;99.90;;;;;;5051021;28;20027;-87
2021/09/07 03:42:38;;;;;;;10.45;6.82;;;15.50;99.90;;;;;;5053489;28;20037;-88
2021/09/07 03:45:06;;;;;;;11.82;6.88;;;15.50;99.90;;;;;;5051716;28;20037;-85
2021/09/07 03:47:32;;;;;;;13.00;6.95;;;15.50;99.90;;;;;;5055943;28;20524;-87
2021/09/07 03:49:57;;;;;;;12.38;7.05;;;15.50;99.90;;;;;;5074428;28;20032;-86
2021/09/07 03:52:23;;;;;;;10.00;6.53;;;15.60;99.90;;;;;;5085142;28;20028;-87
2021/09/07 03:54:49;;;;;;;12.50;7.20;;;15.40;99.90;;;;;;5065015;28;20025;-86
2021/09/07 03:57:15;;;;;;;10.02;7.15;;;15.40;99.90;;;;;;5048005;28;20028;-86
2021/09/07 03:59:40;;;;;;;9.82;6.53;;;15.40;99.90;;;;;;5047154;28;20025;-87
2021/09/07 04:02:06;;;;;;;9.57;7.00;;;16.90;99.90;;;;;;5048083;28;20078;-87
2021/09/07 04:04:32;;;;;;;13.07;7.07;;;15.40;99.90;;;;;;5047160;28;20031;-86
2021/09/07 04:06:58;;;;;;;10.88;6.90;;;;;;;;;;5050872;28;20029;-88
2021/09/07 04:09:23;;;;;;;12.18;7.47;;;15.30;99.90;;;;;;5051746;28;20045;-87
2021/09/07 04:11:50;;;;;;;11.93;6.88;;;18.10;99.90;;;;;;5057249;28;20029;-84
2021/09/07 04:14:16;;;;;;;15.50;6.88;;;17.60;99.90;;;;;;5049435;28;20021;-88
2021/09/07 04:16:42;;;;;;;11.07;7.00;;;15.30;99.90;;;;;;5058214;28;20478;-88
2021/09/07 04:19:08;;;;;;;13.23;8.35;;;15.20;99.90;;;;;;5045137;28;20074;-84
2021/09/07 04:21:34;;;;;;;11.93;7.43;;;;;;;;;;5051425;28;20033;-88
2021/09/07 04:23:59;;;;;;;10.18;7.20;;;15.30;99.90;;;;;;5053757;28;20482;-89
2021/09/07 04:26:25;;;;;;;12.25;7.55;;;15.30;99.90;;;;;;5052670;28;20123;-87
2021/09/07 04:28:50;;;;;;;10.48;7.32;;;15.30;99.90;;;;;;5047946;28;20028;-88
2021/09/07 04:31:18;;;;;;;13.10;7.25;;;15.30;99.90;;;;;;5047108;28;20029;-86
2021/09/07 04:33:44;;;;;;;13.98;7.97;;;15.30;99.90;;;;;;5054229;28;20346;-86
2021/09/07 04:36:10;;;;;;;12.82;7.80;;;16.70;99.90;;;;;;5046703;28;20115;-85
2021/09/07 04:38:36;;;;;;;11.93;7.25;;;15.30;99.90;;;;;;5055287;28;20243;-86
2021/09/07 04:41:01;;;;;;;10.88;7.53;;;15.30;99.90;;;;;;5053176;28;20334;-88
2021/09/07 04:43:27;;;;;;;12.40;7.55;;;15.90;99.90;;;;;;5055345;28;20093;-89
2021/09/07 04:45:52;;;;;;;12.30;7.68;;;15.30;99.90;;;;;;5051718;28;20029;-86
2021/09/07 04:48:18;;;;;;;20.65;10.65;;;15.30;99.90;;;;;;5051876;28;20032;-88
2021/09/07 04:50:44;;;;;;;13.95;8.07;;;16.10;99.90;;;;;;5055652;28;20097;-89
2021/09/07 04:53:10;;;;;;;15.43;8.65;;;16.30;99.90;;;;;;5059952;28;20025;-88
2021/09/07 04:55:36;;;;;;;14.60;7.43;;;15.40;99.90;;;;;;5054442;28;20150;-88
2021/09/07 04:58:01;;;;;;;9.88;6.90;;;15.90;99.90;;;;;;5040351;28;20390;-89
2021/09/07 05:00:27;;;;;;;14.73;7.43;;;16.50;99.90;;;;;;5053214;28;20025;-87
2021/09/07 05:02:53;;;;;;;17.90;8.05;;;15.30;99.90;;;;;;5054594;28;20597;-88
2021/09/07 05:05:18;;;;;;;15.40;8.38;;;15.40;99.90;;;;;;5044216;28;20621;-87
2021/09/07 05:07:44;;;;;;;16.55;8.20;;;16.40;99.90;;;;;;5049632;28;20033;-88
2021/09/07 05:10:10;;;;;;;18.35;8.38;;;15.30;99.90;;;;;;5051071;28;20025;-87
2021/09/07 05:12:35;;;;;;;15.75;8.45;;;15.30;99.90;;;;;;5052654;28;20055;-89
2021/09/07 05:15:02;;;;;;;12.88;7.53;;;;;;;;;;5055048;28;20083;-85
2021/09/07 05:17:28;;;;;;;25.30;10.00;;;15.40;99.90;;;;;;5055999;28;20029;-89
2021/09/07 05:19:54;;;;;;;27.77;9.25;;;;;;;;;;5065622;28;20017;-89
2021/09/07 05:22:20;;;;;;;19.73;8.82;;;;;;;;;;5047379;28;20029;-88
2021/09/07 05:24:46;;;;;;;18.17;9.10;;;;;;;;;;5059413;28;20029;-87
2021/09/07 05:27:12;;;;;;;16.77;7.97;;;;;;;;;;5052179;28;20030;-87
2021/09/07 05:29:37;;;;;;;18.23;7.65;;;15.30;99.90;;;;;;5053839;28;20025;-89
2021/09/07 05:32:03;;;;;;;13.88;8.00;;;;;;;;;;5063193;28;20028;-88
2021/09/07 05:34:30;;;;;;;14.45;8.20;;;15.20;99.90;;;;;;5049028;28;20033;-87
2021/09/07 05:36:57;;;;;;;13.38;8.30;;;15.20;99.90;;;;;;5056497;28;20458;-87
2021/09/07 05:39:24;;;;;;;13.15;8.73;;;;;;;;;;5053321;28;20463;-85
2021/09/07 05:41:51;;;;;;;13.65;8.05;;;15.30;99.90;;;;;;5046642;28;20148;-87
2021/09/07 05:44:17;;;;;;;14.82;9.10;;;15.60;99.90;;;;;;5048312;28;20726;-87
2021/09/07 05:46:43;;;;;;;16.35;9.18;;;16.20;99.90;;;;;;5055406;28;20112;-88
2021/09/07 05:49:09;;;;;;;14.93;9.27;;;;;;;;;;5053685;28;20052;-86
2021/09/07 05:51:35;;;;;;;14.32;9.50;;;;;;;;;;5055587;28;20025;-88
2021/09/07 05:54:01;;;;;;;12.40;8.85;;;15.40;99.90;;;;;;5062009;28;20241;-86
2021/09/07 05:56:28;;;;;;;12.75;8.02;;;;;;;;;;5051901;28;20375;-87
2021/09/07 05:58:54;;;;;;;14.38;8.95;;;;;;;;;;5061527;28;20581;-87
2021/09/07 06:01:20;;;;;;;17.08;8.52;;;15.60;99.90;;;;;;5049835;28;20036;-87
2021/09/07 06:03:45;;;;;;;15.75;9.25;;;16.30;99.90;;;;;;5054140;28;20029;-88
2021/09/07 06:06:11;;;;;;;15.30;9.32;;;15.80;99.90;;;;;;5053923;28;20021;-88
2021/09/07 06:08:37;;;;;;;16.00;9.18;;;15.80;99.90;;;;;;5050243;28;20079;-89
2021/09/07 06:11:04;;;;;;;13.70;9.27;;;15.90;99.90;;;;;;5050768;28;20045;-88
2021/09/07 06:13:31;;;;;;;17.52;9.05;;;15.90;99.90;;;;;;5056781;28;20071;-89
2021/09/07 06:15:57;;;;;;;16.05;9.70;;;15.90;99.90;;;;;;5060849;28;20032;-89
2021/09/07 06:18:22;;;;;;;17.20;9.48;;;16.80;99.90;;;;;;5054206;28;20121;-89
2021/09/07 06:20:48;;;;;;;17.75;9.85;;;16.00;99.90;;;;;;5054380;28;20515;-88
2021/09/07 06:23:13;;;;;;;14.40;8.85;;;17.90;99.90;;;;;;5061865;28;20074;-86
2021/09/07 06:25:39;;;;;;;23.02;10.35;;;16.10;99.90;;;;;;5059092;28;20057;-86
2021/09/07 06:28:05;;;;;;;20.45;9.55;;;16.10;99.90;;;;;;5056380;28;20021;-89
2021/09/07 06:30:31;;;;;;;36.55;11.98;;;16.10;99.90;;;;;;5057955;28;20036;-88
2021/09/07 06:32:56;;;;;;;23.73;10.50;;;18.20;99.90;;;;;;5057529;28;20433;-85
2021/09/07 06:35:22;;;;;;;28.33;11.48;;;17.10;99.90;;;;;;5056288;28;20025;-85
2021/09/07 06:37:48;;;;;;;20.13;9.80;;;;;;;;;;5059502;28;20028;-88
2021/09/07 06:40:14;;;;;;;24.02;10.18;;;;;;;;;;5055271;28;20055;-87
2021/09/07 06:42:40;;;;;;;18.73;9.98;;;16.60;99.90;;;;;;5063537;28;20034;-86
2021/09/07 06:45:06;;;;;;;17.05;9.93;;;16.70;99.90;;;;;;5058259;28;20127;-87
2021/09/07 06:47:32;;;;;;;16.40;9.75;;;16.80;99.90;;;;;;5056944;28;20056;-84
2021/09/07 06:50:00;;;;;;;16.25;9.70;;;16.80;99.90;;;;;;5052646;28;20044;-88
2021/09/07 06:52:27;;;;;;;20.50;9.50;;;17.40;99.90;;;;;;5052363;28;20017;-86
2021/09/07 06:54:53;;;;;;;19.73;9.93;;;16.90;99.90;;;;;;5057659;28;20093;-84
2021/09/07 06:57:18;;;;;;;16.67;9.80;;;17.00;99.90;;;;;;5054915;28;20057;-83
2021/09/07 06:59:44;;;;;;;17.52;9.60;;;17.10;99.90;;;;;;5050332;28;20029;-87
2021/09/07 07:02:10;;;;;;;16.35;9.38;;;17.10;99.90;;;;;;5058157;28;20620;-88
2021/09/07 07:04:35;;;;;;;17.23;9.43;;;17.30;99.90;;;;;;5058099;28;20025;-84
2021/09/07 07:07:01;;;;;;;17.75;9.57;;;17.40;99.90;;;;;;5057045;28;20025;-87
2021/09/07 07:09:26;;;;;;;15.23;9.35;;;17.50;99.90;;;;;;5056548;28;20029;-85
2021/09/07 07:11:52;;;;;;;19.20;9.73;;;17.70;99.90;;;;;;5059377;28;20575;-82
2021/09/07 07:14:21;;;;;;;15.57;10.18;;;18.90;99.90;;;;;;5058636;28;20514;-84
2021/09/07 07:16:47;;;;;;;18.63;9.50;;;18.00;99.90;;;;;;5055547;28;20025;-83
2021/09/07 07:19:13;;;;;;;18.60;10.25;;;18.10;99.90;;;;;;5053175;28;20021;-86
2021/09/07 07:21:39;;;;;;;16.67;8.98;;;18.30;99.90;;;;;;5057213;28;20040;-83
2021/09/07 07:24:04;;;;;;;17.63;9.90;;;19.20;99.90;;;;;;5054022;28;20036;-84
2021/09/07 07:26:30;;;;;;;14.63;9.35;;;18.40;99.90;;;;;;5052391;28;20487;-83
2021/09/07 07:28:56;;;;;;;17.52;9.70;;;18.50;99.90;;;;;;5053880;28;20062;-80
2021/09/07 07:31:21;;;;;;;15.85;9.32;;;18.60;99.90;;;;;;5057822;28;20033;-82
2021/09/07 07:33:47;;;;;;;15.23;9.23;;;18.90;99.90;;;;;;5064517;28;20494;-83
2021/09/07 07:36:12;;;;;;;16.75;8.70;;;19.00;99.90;;;;;;5048095;28;20025;-81
2021/09/07 07:38:38;;;;;;;13.20;8.95;;;19.00;99.90;;;;;;5050850;28;20541;-83
2021/09/07 07:41:04;;;;;;;17.05;9.45;;;19.20;99.90;;;;;;5058719;28;20041;-81
2021/09/07 07:43:33;;;;;;;16.02;9.32;;;19.30;99.90;;;;;;5057586;28;20024;-82
2021/09/07 07:45:59;;;;;;;15.60;9.50;;;19.50;99.90;;;;;;5053288;28;20051;-81
2021/09/07 07:48:24;;;;;;;15.35;8.75;;;19.50;99.90;;;;;;5051745;28;20276;-83
2021/09/07 07:50:50;;;;;;;13.45;8.65;;;19.70;99.90;;;;;;5055973;28;20067;-82
2021/09/07 07:53:16;;;;;;;14.95;8.70;;;19.90;99.90;;;;;;5051373;28;20025;-81
2021/09/07 07:55:42;;;;;;;15.63;8.73;;;20.10;99.60;;;;;;5054399;28;20039;-81
2021/09/07 07:58:07;;;;;;;11.75;8.10;;;20.30;98.90;;;;;;5058374;28;20081;-84
2021/09/07 08:00:33;;;;;;;17.98;11.65;;;20.40;99.10;;;;;;5064640;28;20055;-83
2021/09/07 08:02:58;;;;;;;13.45;8.88;;;20.50;98.80;;;;;;5059252;28;20044;-83
2021/09/07 08:05:24;;;;;;;14.18;8.52;;;20.60;98.30;;;;;;5056689;28;20426;-80
2021/09/07 08:07:50;;;;;;;15.30;8.70;;;20.80;98.20;;;;;;5050000;28;20033;-84
2021/09/07 08:10:15;;;;;;;12.77;8.48;;;20.80;97.80;;;;;;5063213;28;20044;-82
2021/09/07 08:12:41;;;;;;;13.63;8.95;;;21.00;97.60;;;;;;5072280;28;20060;-81
2021/09/07 08:15:07;;;;;;;14.38;9.00;;;20.80;97.60;;;;;;5050313;28;20024;-82
2021/09/07 08:17:33;;;;;;;14.13;9.38;;;20.90;97.40;;;;;;5053506;28;20026;-79
2021/09/07 08:19:58;;;;;;;14.38;8.40;;;21.20;97.40;;;;;;5056550;28;20490;-79
2021/09/07 08:22:24;;;;;;;16.42;8.82;;;21.40;96.80;;;;;;5052209;28;20028;-84
2021/09/07 08:24:50;;;;;;;12.73;8.35;;;21.50;96.40;;;;;;5054187;28;20026;-80
2021/09/07 08:27:16;;;;;;;12.35;8.18;;;21.70;96.30;;;;;;5055199;28;20036;-80
2021/09/07 08:29:42;;;;;;;13.82;8.20;;;21.80;96.20;;;;;;5054734;28;20029;-82
2021/09/07 08:32:08;;;;;;;12.20;7.65;;;22.00;95.60;;;;;;5051414;28;20114;-85
2021/09/07 08:34:34;;;;;;;11.10;7.43;;;22.10;95.70;;;;;;5048208;28;20021;-84
2021/09/07 08:36:59;;;;;;;12.90;7.05;;;22.20;94.60;;;;;;5053755;28;20037;-84
2021/09/07 08:39:25;;;;;;;16.83;7.03;;;22.30;94.70;;;;;;5053207;28;20443;-83
2021/09/07 08:41:51;;;;;;;11.77;7.93;;;22.40;94.60;;;;;;5056243;28;20120;-82
2021/09/07 08:44:18;;;;;;;9.88;6.75;;;22.50;94.60;;;;;;5057219;28;20112;-84
2021/09/07 08:46:44;;;;;;;11.55;7.68;;;22.60;94.00;;;;;;5056633;28;20032;-86
2021/09/07 08:49:12;;;;;;;13.95;8.00;;;22.80;93.90;;;;;;5053984;28;20025;-86
2021/09/07 08:51:38;;;;;;;11.30;7.15;;;23.00;93.40;;;;;;5054861;28;20029;-83
2021/09/07 08:54:04;;;;;;;14.65;7.65;;;23.10;92.90;;;;;;5044311;28;20017;-84
2021/09/07 08:56:29;;;;;;;12.32;7.60;;;23.20;92.80;;;;;;5055214;28;20071;-85
2021/09/07 08:58:55;;;;;;;10.00;7.22;;;23.20;92.80;;;;;;5055504;28;20055;-85
2021/09/07 09:01:21;;;;;;;12.63;7.10;;;23.40;92.20;;;;;;5054640;28;20025;-85
2021/09/07 09:03:48;;;;;;;10.82;6.90;;;23.40;92.40;;;;;;5055919;28;20025;-84
2021/09/07 09:06:26;;;;;;;9.52;6.88;;;23.60;91.90;;;;;;5055674;28;20055;-83
2021/09/07 09:09:06;;;;;;;13.13;6.65;;;23.60;92.10;;;;;;5058659;28;20029;-87
2021/09/07 09:11:54;;;;;;;11.65;6.13;;;23.70;91.30;;;;;;5044374;28;20029;-82
2021/09/07 09:14:38;;;;;;;11.45;6.68;;;23.80;91.30;;;;;;5049557;28;20033;-85
2021/09/07 09:17:21;;;;;;;10.32;6.22;;;23.90;91.00;;;;;;5055306;28;20025;-86
2021/09/07 09:19:51;;;;;;;10.55;7.25;;;23.90;91.20;;;;;;5054109;28;20051;-84
2021/09/07 09:22:17;;;;;;;10.32;7.10;;;24.10;91.00;;;;;;5050761;28;20037;-85
2021/09/07 09:24:43;;;;;;;11.38;7.13;;;24.10;91.10;;;;;;5056915;28;20068;-84
2021/09/07 09:27:09;;;;;;;11.02;6.78;;;24.70;91.20;;;;;;5055005;28;20028;-84
2021/09/07 09:29:37;;;;;;;9.20;6.32;;;24.20;91.30;;;;;;5055263;28;20437;-85
2021/09/07 09:32:06;;;;;;;12.63;6.90;;;24.40;90.50;;;;;;5056499;28;20025;-87
2021/09/07 09:34:33;;;;;;;10.82;6.47;;;24.50;90.70;;;;;;5059500;28;20052;-82
2021/09/07 09:36:59;;;;;;;9.35;6.50;;;;;;;;;;5054703;28;20059;-85
2021/09/07 09:39:47;;;;;;;10.02;5.55;;;24.70;87.60;;;;;;5054016;28;20039;-83
2021/09/07 09:42:24;;;;;;;10.90;6.50;;;24.60;87.50;;;;;;5056125;28;20056;-83
2021/09/07 09:45:03;;;;;;;12.05;6.38;;;24.70;88.00;;;;;;5060783;28;20029;-83
2021/09/07 09:47:38;;;;;;;8.93;5.57;;;;;;;;;;5059381;28;20028;-84
2021/09/07 09:50:04;;;;;;;8.32;5.57;;;;;;;;;;5060255;28;20074;-89
2021/09/07 09:52:35;;;;;;;8.65;6.30;;;24.90;87.70;;;;;;5060264;28;20405;-83
2021/09/07 09:55:01;;;;;;;10.20;6.60;;;24.90;87.10;;;;;;5060091;28;20178;-84
2021/09/07 09:57:27;;;;;;;8.55;6.13;;;25.00;86.90;;;;;;5061510;28;20401;-85
2021/09/07 09:59:55;;;;;;;10.00;6.28;;;25.10;86.80;;;;;;5058609;28;20021;-86
2021/09/07 10:02:21;;;;;;;12.60;5.93;;;25.20;85.80;;;;;;5058378;28;20032;-87
2021/09/07 10:04:47;;;;;;;9.45;5.93;;;25.30;85.50;;;;;;5058784;28;20059;-86
2021/09/07 10:07:13;;;;;;;8.85;5.88;;;25.40;85.60;;;;;;5056570;28;20040;-86
2021/09/07 10:09:41;;;;;;;11.50;6.22;;;25.40;84.80;;;;;;5060806;28;20029;-87
2021/09/07 10:12:36;;;;;;;10.20;6.60;;;25.50;84.80;;;;;;5060929;28;20032;-85
2021/09/07 10:15:15;;;;;;;8.50;5.55;;;25.60;84.80;;;;;;5049681;28;20029;-84
2021/09/07 10:17:45;;;;;;;9.20;5.97;;;25.60;83.70;;;;;;5055338;28;20026;-83
2021/09/07 10:20:16;;;;;;;9.30;5.63;;;25.70;84.00;;;;;;5055046;28;20036;-85
2021/09/07 10:23:06;;;;;;;10.15;6.68;;;25.80;83.40;;;;;;5059159;28;20051;-86
2021/09/07 10:25:59;;;;;;;7.85;5.60;;;25.90;83.50;;;;;;5056902;28;20060;-83
2021/09/07 10:28:36;;;;;;;9.25;6.28;;;26.10;82.80;;;;;;5057923;28;20021;-86
2021/09/07 10:31:21;;;;;;;8.63;5.78;;;26.00;82.60;;;;;;5058887;28;20399;-83
2021/09/07 10:33:56;;;;;;;9.25;6.25;;;26.00;82.60;;;;;;5058256;28;20505;-84
2021/09/07 10:36:24;;;;;;;10.85;6.40;;;26.10;83.10;;;;;;5047459;28;20018;-84
2021/09/07 10:39:03;;;;;;;7.93;5.75;;;26.20;82.80;;;;;;5060662;28;20092;-86
2021/09/07 10:41:29;;;;;;;10.17;5.47;;;26.20;80.80;;;;;;5055163;28;20078;-85
2021/09/07 10:44:00;;;;;;;9.40;6.25;;;26.30;81.00;;;;;;5058603;28;20449;-85
2021/09/07 10:46:45;;;;;;;9.48;6.53;;;26.40;82.10;;;;;;5056266;28;20453;-87
2021/09/07 10:49:26;;;;;;;8.20;5.78;;;26.50;81.00;;;;;;5060774;28;20052;-87
2021/09/07 10:52:10;;;;;;;7.88;5.60;;;26.50;78.70;;;;;;5060583;28;20394;-85
2021/09/07 10:54:52;;;;;;;9.73;5.95;;;26.60;78.70;;;;;;5060381;28;20041;-87
2021/09/07 10:57:38;;;;;;;9.15;5.53;;;26.60;78.30;;;;;;5061162;28;20021;-85
2021/09/07 11:00:17;;;;;;;8.23;5.65;;;26.70;76.80;;;;;;5061722;28;20079;-85
2021/09/07 11:02:43;;;;;;;12.10;6.00;;;26.80;77.20;;;;;;5059514;28;20021;-87
2021/09/07 11:05:22;;;;;;;10.05;5.97;;;26.80;76.30;;;;;;5055459;28;20029;-91
2021/09/07 11:07:49;;;;;;;9.27;5.63;;;26.90;77.00;;;;;;5055064;28;20056;-86
2021/09/07 11:10:14;;;;;;;9.65;5.93;;;26.90;75.60;;;;;;5049874;28;20051;-86
2021/09/07 11:12:52;;;;;;;8.02;5.93;;;27.00;75.70;;;;;;5054818;28;20025;-85
2021/09/07 11:15:23;;;;;;;11.38;5.97;;;26.90;75.20;;;;;;5044417;28;20025;-85
2021/09/07 11:18:07;;;;;;;12.65;5.88;;;26.90;73.70;;;;;;5059218;28;20021;-85
2021/09/07 11:20:47;;;;;;;8.00;5.30;;;26.90;73.10;;;;;;5058442;28;20090;-84
2021/09/07 11:23:23;;;;;;;9.27;5.75;;;26.90;69.50;;;;;;5047330;28;20037;-82
2021/09/07 11:25:59;;;;;;;15.40;8.30;;;26.90;69.90;;;;;;5057905;28;20040;-85
2021/09/07 11:28:25;;;;;;;7.68;5.03;;;27.10;70.30;;;;;;5056476;28;20429;-85
2021/09/07 11:30:52;;;;;;;8.90;4.93;;;27.20;68.40;;;;;;5053597;28;20029;-87
2021/09/07 11:33:23;;;;;;;9.02;5.35;;;27.30;68.90;;;;;;5054983;28;20021;-83
2021/09/07 11:35:51;;;;;;;9.93;5.47;;;27.10;69.00;;;;;;5050300;28;20388;-84
2021/09/07 11:38:26;;;;;;;7.05;5.20;;;27.00;68.60;;;;;;5054876;28;20067;-85
2021/09/07 11:40:54;;;;;;;8.15;5.32;;;27.10;69.80;;;;;;5058539;28;20025;-84
2021/09/07 11:43:42;;;;;;;9.15;5.18;;;27.10;67.40;;;;;;5052033;28;20127;-87
2021/09/07 11:46:09;;;;;;;9.88;5.15;;;27.20;66.10;;;;;;5048667;28;20482;-85
2021/09/07 11:48:37;;;;;;;9.07;5.85;;;27.30;68.00;;;;;;5050993;28;20058;-84
2021/09/07 11:51:04;;;;;;;7.57;5.32;;;27.30;67.40;;;;;;5050614;28;20029;-85
2021/09/07 11:53:30;;;;;;;8.32;5.30;;;;;;;;;;5050531;28;20082;-88
2021/09/07 11:55:57;;;;;;;9.27;5.22;;;;;;;;;;5058439;28;20402;-84
2021/09/07 11:58:27;;;;;;;8.45;5.05;;;;;;;;;;5054502;28;20020;-81
2021/09/07 12:01:00;;;;;;;8.50;4.85;;;;;;;;;;5054676;28;20029;-84
2021/09/07 12:03:33;;;;;;;8.70;5.50;;;;;;;;;;5055462;28;20059;-85
2021/09/07 12:06:00;;;;;;;8.75;5.28;;;;;;;;;;5050494;28;20086;-85
2021/09/07 12:08:34;;;;;;;8.85;5.70;;;28.10;65.60;;;;;;5053848;28;20196;-83
2021/09/07 12:11:00;;;;;;;8.90;5.43;;;;;;;;;;5053731;28;20044;-81
2021/09/07 12:13:26;;;;;;;7.93;4.93;;;;;;;;;;5053652;28;20382;-82
2021/09/07 12:15:52;;;;;;;9.07;4.90;;;;;;;;;;5054376;28;20028;-82
2021/09/07 12:18:37;;;;;;;7.70;4.97;;;27.80;64.70;;;;;;5054243;28;20055;-84
2021/09/07 12:21:24;;;;;;;9.40;5.05;;;27.90;62.80;;;;;;5054619;28;20433;-86
2021/09/07 12:23:51;;;;;;;8.05;5.10;;;28.00;63.00;;;;;;5056389;28;20402;-83
2021/09/07 12:26:35;;;;;;;6.82;5.30;;;28.10;63.00;;;;;;5053974;28;20045;-84
2021/09/07 12:29:18;;;;;;;8.45;5.07;;;28.10;63.10;;;;;;5051367;28;20043;-84
2021/09/07 12:31:45;;;;;;;6.63;4.88;;;27.50;62.70;;;;;;5054311;28;20029;-82
2021/09/07 12:34:20;;;;;;;6.80;4.57;;;27.40;63.10;;;;;;5053921;28;20568;-82
2021/09/07 12:36:48;;;;;;;6.60;4.82;;;27.60;63.20;;;;;;5055527;28;20025;-80
2021/09/07 12:39:14;;;;;;;6.78;5.07;;;25.70;61.50;;;;;;5062150;28;20025;-84
2021/09/07 12:41:40;;;;;;;7.32;4.93;;;27.90;63.40;;;;;;5054189;28;20029;-83
2021/09/07 12:44:06;;;;;;;7.55;4.93;;;27.90;61.30;;;;;;5050349;28;20032;-83
2021/09/07 12:46:31;;;;;;;6.75;4.63;;;28.00;63.50;;;;;;5052429;28;20090;-81
2021/09/07 12:48:57;;;;;;;7.03;4.70;;;28.20;62.90;;;;;;5054149;28;20533;-82
2021/09/07 12:51:23;;;;;;;8.30;5.22;;;28.20;63.20;;;;;;5053993;28;20402;-81
2021/09/07 12:53:51;;;;;;;6.88;4.88;;;28.10;62.00;;;;;;5055166;28;20048;-84